Thayer, Kansas
Current Conditions -  °F | °C
As of 2:52 PM on Friday 21 Nov 2014 (Local Time) from KPPF Reporting Station
Haze Haze  
Wind Chill: 53°   Ceiling: 1200
Heat Index: 53°   Visibility: 6mi
Dew Point: 51°   Wind: 3mph
Humidity: 93%   Direction: NA
Pressure: 30.07"   Gusts: NA
Location:  37.49°N, 95.47°W
Report Text: KPPF 212052Z AUTO VRB03KT 6SM BR OVC012 12/11 A3007 RMK AO2 SLP186 60000 T01170106 56022
Loading
Personal Weather Stations






























Interactive Weather Map New forecast layout! Learn more

10-Day Weather Forecast

Advertisements
Track Severe Weather on mobile